<?xml version="1.0" encoding="UTF-8" standalone="no" ?>
<gpx xmlns="http://www.topografix.com/GPX/1/1" creator="MapSource 6.11.6" version="1.1" xmlns:xsi="http://www.w3.org/2001/XMLSchema-instance" xsi:schemaLocation="http://www.topografix.com/GPX/1/1 http://www.topografix.com/GPX/1/1/gpx.xsd">

  <metadata>
    <link href="http://www.garmin.com">
      <text>Garmin International</text>
    </link>
    <time>2010-03-28T10:58:41Z</time>
    <bounds maxlat="50.681647" maxlon="6.408850" minlat="50.663281" minlon="6.398650"/>
  </metadata>

  <trk>
    <name>Rundweg 10  über Kommerscheidt</name>
    <extensions>
      <gpxx:TrackExtension xmlns:gpxx="http://www.garmin.com/xmlschemas/GpxExtensions/v3" xmlns:xsi="http://www.w3.org/2001/XMLSchema-instance" xsi:schemaLocation="http://www.garmin.com/xmlschemas/GpxExtensions/v3 http://www.garmin.com/xmlschemas/GpxExtensions/v3/GpxExtensionsv3.xsd">
        <gpxx:DisplayColor>White</gpxx:DisplayColor>
      </gpxx:TrackExtension>
    </extensions>
    <trkseg>
      <trkpt lat="50.664227" lon="6.408714">
        <ele>425.520000</ele>
        <time>2010-03-28T08:36:36Z</time>
      </trkpt>
      <trkpt lat="50.664146" lon="6.408834">
        <ele>424.560000</ele>
        <time>2010-03-28T08:36:45Z</time>
      </trkpt>
      <trkpt lat="50.664008" lon="6.408840">
        <ele>425.040000</ele>
        <time>2010-03-28T08:36:56Z</time>
      </trkpt>
      <trkpt lat="50.663896" lon="6.408573">
        <ele>426.000000</ele>
        <time>2010-03-28T08:37:07Z</time>
      </trkpt>
      <trkpt lat="50.663872" lon="6.408547">
        <ele>425.520000</ele>
        <time>2010-03-28T08:37:10Z</time>
      </trkpt>
      <trkpt lat="50.663783" lon="6.408448">
        <ele>425.040000</ele>
        <time>2010-03-28T08:37:16Z</time>
      </trkpt>
      <trkpt lat="50.663721" lon="6.408370">
        <ele>426.480000</ele>
        <time>2010-03-28T08:37:23Z</time>
      </trkpt>
      <trkpt lat="50.663710" lon="6.408353">
        <ele>426.480000</ele>
        <time>2010-03-28T08:37:25Z</time>
      </trkpt>
      <trkpt lat="50.663687" lon="6.408213">
        <ele>426.480000</ele>
        <time>2010-03-28T08:37:32Z</time>
      </trkpt>
      <trkpt lat="50.663643" lon="6.408142">
        <ele>426.000000</ele>
        <time>2010-03-28T08:37:37Z</time>
      </trkpt>
      <trkpt lat="50.663592" lon="6.408058">
        <ele>426.000000</ele>
        <time>2010-03-28T08:37:41Z</time>
      </trkpt>
      <trkpt lat="50.663459" lon="6.407862">
        <ele>426.480000</ele>
        <time>2010-03-28T08:37:54Z</time>
      </trkpt>
      <trkpt lat="50.663367" lon="6.407686">
        <ele>427.440000</ele>
        <time>2010-03-28T08:38:03Z</time>
      </trkpt>
      <trkpt lat="50.663281" lon="6.407378">
        <ele>427.440000</ele>
        <time>2010-03-28T08:38:18Z</time>
      </trkpt>
      <trkpt lat="50.663285" lon="6.407273">
        <ele>427.920000</ele>
        <time>2010-03-28T08:38:23Z</time>
      </trkpt>
      <trkpt lat="50.663345" lon="6.406987">
        <ele>427.440000</ele>
        <time>2010-03-28T08:38:35Z</time>
      </trkpt>
      <trkpt lat="50.663382" lon="6.406907">
        <ele>427.920000</ele>
        <time>2010-03-28T08:38:40Z</time>
      </trkpt>
      <trkpt lat="50.663429" lon="6.406825">
        <ele>428.890000</ele>
        <time>2010-03-28T08:38:45Z</time>
      </trkpt>
      <trkpt lat="50.663482" lon="6.406667">
        <ele>428.890000</ele>
        <time>2010-03-28T08:38:52Z</time>
      </trkpt>
      <trkpt lat="50.663547" lon="6.406584">
        <ele>429.850000</ele>
        <time>2010-03-28T08:38:57Z</time>
      </trkpt>
      <trkpt lat="50.663569" lon="6.406546">
        <ele>429.850000</ele>
        <time>2010-03-28T08:38:59Z</time>
      </trkpt>
      <trkpt lat="50.663654" lon="6.406428">
        <ele>429.850000</ele>
        <time>2010-03-28T08:39:07Z</time>
      </trkpt>
      <trkpt lat="50.663733" lon="6.406212">
        <ele>429.850000</ele>
        <time>2010-03-28T08:39:19Z</time>
      </trkpt>
      <trkpt lat="50.663749" lon="6.405910">
        <ele>430.330000</ele>
        <time>2010-03-28T08:39:34Z</time>
      </trkpt>
      <trkpt lat="50.663772" lon="6.405796">
        <ele>432.250000</ele>
        <time>2010-03-28T08:39:40Z</time>
      </trkpt>
      <trkpt lat="50.663778" lon="6.405673">
        <ele>431.770000</ele>
        <time>2010-03-28T08:39:45Z</time>
      </trkpt>
      <trkpt lat="50.663788" lon="6.405534">
        <ele>431.290000</ele>
        <time>2010-03-28T08:39:51Z</time>
      </trkpt>
      <trkpt lat="50.663809" lon="6.405342">
        <ele>429.370000</ele>
        <time>2010-03-28T08:39:58Z</time>
      </trkpt>
      <trkpt lat="50.663821" lon="6.405173">
        <ele>428.890000</ele>
        <time>2010-03-28T08:40:06Z</time>
      </trkpt>
      <trkpt lat="50.663821" lon="6.404880">
        <ele>427.920000</ele>
        <time>2010-03-28T08:40:20Z</time>
      </trkpt>
      <trkpt lat="50.663815" lon="6.404766">
        <ele>427.440000</ele>
        <time>2010-03-28T08:40:25Z</time>
      </trkpt>
      <trkpt lat="50.663781" lon="6.404574">
        <ele>426.960000</ele>
        <time>2010-03-28T08:40:35Z</time>
      </trkpt>
      <trkpt lat="50.663753" lon="6.404440">
        <ele>426.480000</ele>
        <time>2010-03-28T08:40:41Z</time>
      </trkpt>
      <trkpt lat="50.663711" lon="6.404176">
        <ele>422.640000</ele>
        <time>2010-03-28T08:40:55Z</time>
      </trkpt>
      <trkpt lat="50.663744" lon="6.404082">
        <ele>421.190000</ele>
        <time>2010-03-28T08:41:01Z</time>
      </trkpt>
      <trkpt lat="50.663815" lon="6.404075">
        <ele>420.230000</ele>
        <time>2010-03-28T08:41:08Z</time>
      </trkpt>
      <trkpt lat="50.663925" lon="6.404221">
        <ele>418.310000</ele>
        <time>2010-03-28T08:41:20Z</time>
      </trkpt>
      <trkpt lat="50.663985" lon="6.404329">
        <ele>417.350000</ele>
        <time>2010-03-28T08:41:26Z</time>
      </trkpt>
      <trkpt lat="50.664005" lon="6.404384">
        <ele>416.870000</ele>
        <time>2010-03-28T08:41:30Z</time>
      </trkpt>
      <trkpt lat="50.664061" lon="6.404447">
        <ele>416.390000</ele>
        <time>2010-03-28T08:41:35Z</time>
      </trkpt>
      <trkpt lat="50.664116" lon="6.404648">
        <ele>414.950000</ele>
        <time>2010-03-28T08:41:46Z</time>
      </trkpt>
      <trkpt lat="50.664295" lon="6.404937">
        <ele>412.060000</ele>
        <time>2010-03-28T08:42:07Z</time>
      </trkpt>
      <trkpt lat="50.664375" lon="6.405116">
        <ele>411.100000</ele>
        <time>2010-03-28T08:42:17Z</time>
      </trkpt>
      <trkpt lat="50.664476" lon="6.405191">
        <ele>410.620000</ele>
        <time>2010-03-28T08:42:23Z</time>
      </trkpt>
      <trkpt lat="50.664608" lon="6.405377">
        <ele>409.180000</ele>
        <time>2010-03-28T08:42:35Z</time>
      </trkpt>
      <trkpt lat="50.664723" lon="6.405443">
        <ele>407.260000</ele>
        <time>2010-03-28T08:42:47Z</time>
      </trkpt>
      <trkpt lat="50.664874" lon="6.405583">
        <ele>404.370000</ele>
        <time>2010-03-28T08:43:04Z</time>
      </trkpt>
      <trkpt lat="50.664904" lon="6.405644">
        <ele>404.370000</ele>
        <time>2010-03-28T08:43:08Z</time>
      </trkpt>
      <trkpt lat="50.665040" lon="6.405805">
        <ele>402.450000</ele>
        <time>2010-03-28T08:43:21Z</time>
      </trkpt>
      <trkpt lat="50.665166" lon="6.406123">
        <ele>400.050000</ele>
        <time>2010-03-28T08:43:41Z</time>
      </trkpt>
      <trkpt lat="50.665197" lon="6.406265">
        <ele>398.600000</ele>
        <time>2010-03-28T08:43:49Z</time>
      </trkpt>
      <trkpt lat="50.665229" lon="6.406339">
        <ele>398.600000</ele>
        <time>2010-03-28T08:43:53Z</time>
      </trkpt>
      <trkpt lat="50.665269" lon="6.406470">
        <ele>397.640000</ele>
        <time>2010-03-28T08:44:00Z</time>
      </trkpt>
      <trkpt lat="50.665281" lon="6.406552">
        <ele>397.160000</ele>
        <time>2010-03-28T08:44:04Z</time>
      </trkpt>
      <trkpt lat="50.665315" lon="6.406667">
        <ele>396.200000</ele>
        <time>2010-03-28T08:44:10Z</time>
      </trkpt>
      <trkpt lat="50.665376" lon="6.406858">
        <ele>394.760000</ele>
        <time>2010-03-28T08:44:22Z</time>
      </trkpt>
      <trkpt lat="50.665505" lon="6.407165">
        <ele>392.360000</ele>
        <time>2010-03-28T08:44:44Z</time>
      </trkpt>
      <trkpt lat="50.665666" lon="6.407190">
        <ele>390.910000</ele>
        <time>2010-03-28T08:44:58Z</time>
      </trkpt>
      <trkpt lat="50.665717" lon="6.407216">
        <ele>390.430000</ele>
        <time>2010-03-28T08:45:01Z</time>
      </trkpt>
      <trkpt lat="50.665927" lon="6.407449">
        <ele>388.030000</ele>
        <time>2010-03-28T08:45:21Z</time>
      </trkpt>
      <trkpt lat="50.665931" lon="6.407464">
        <ele>387.550000</ele>
        <time>2010-03-28T08:45:22Z</time>
      </trkpt>
      <trkpt lat="50.666095" lon="6.407762">
        <ele>384.660000</ele>
        <time>2010-03-28T08:45:40Z</time>
      </trkpt>
      <trkpt lat="50.666261" lon="6.407953">
        <ele>383.700000</ele>
        <time>2010-03-28T08:45:59Z</time>
      </trkpt>
      <trkpt lat="50.666317" lon="6.408141">
        <ele>383.700000</ele>
        <time>2010-03-28T08:46:14Z</time>
      </trkpt>
      <trkpt lat="50.666458" lon="6.408347">
        <ele>384.180000</ele>
        <time>2010-03-28T08:46:30Z</time>
      </trkpt>
      <trkpt lat="50.666600" lon="6.408356">
        <ele>382.740000</ele>
        <time>2010-03-28T08:46:47Z</time>
      </trkpt>
      <trkpt lat="50.666965" lon="6.408385">
        <ele>380.340000</ele>
        <time>2010-03-28T08:47:06Z</time>
      </trkpt>
      <trkpt lat="50.667093" lon="6.408303">
        <ele>378.420000</ele>
        <time>2010-03-28T08:47:22Z</time>
      </trkpt>
      <trkpt lat="50.667282" lon="6.408274">
        <ele>375.530000</ele>
        <time>2010-03-28T08:47:40Z</time>
      </trkpt>
      <trkpt lat="50.667460" lon="6.408271">
        <ele>372.650000</ele>
        <time>2010-03-28T08:47:55Z</time>
      </trkpt>
      <trkpt lat="50.667526" lon="6.408227">
        <ele>371.690000</ele>
        <time>2010-03-28T08:48:00Z</time>
      </trkpt>
      <trkpt lat="50.667558" lon="6.408222">
        <ele>371.210000</ele>
        <time>2010-03-28T08:48:03Z</time>
      </trkpt>
      <trkpt lat="50.667586" lon="6.408188">
        <ele>371.210000</ele>
        <time>2010-03-28T08:48:06Z</time>
      </trkpt>
      <trkpt lat="50.667604" lon="6.408171">
        <ele>370.730000</ele>
        <time>2010-03-28T08:48:09Z</time>
      </trkpt>
      <trkpt lat="50.667723" lon="6.408061">
        <ele>369.760000</ele>
        <time>2010-03-28T08:48:18Z</time>
      </trkpt>
      <trkpt lat="50.667856" lon="6.408072">
        <ele>367.840000</ele>
        <time>2010-03-28T08:48:29Z</time>
      </trkpt>
      <trkpt lat="50.667949" lon="6.408033">
        <ele>366.880000</ele>
        <time>2010-03-28T08:48:33Z</time>
      </trkpt>
      <trkpt lat="50.668230" lon="6.407932">
        <ele>364.480000</ele>
        <time>2010-03-28T08:48:48Z</time>
      </trkpt>
      <trkpt lat="50.668244" lon="6.407930">
        <ele>364.480000</ele>
        <time>2010-03-28T08:48:49Z</time>
      </trkpt>
      <trkpt lat="50.668314" lon="6.407848">
        <ele>363.040000</ele>
        <time>2010-03-28T08:48:56Z</time>
      </trkpt>
      <trkpt lat="50.668407" lon="6.407786">
        <ele>361.590000</ele>
        <time>2010-03-28T08:49:07Z</time>
      </trkpt>
      <trkpt lat="50.668458" lon="6.407736">
        <ele>361.110000</ele>
        <time>2010-03-28T08:49:12Z</time>
      </trkpt>
      <trkpt lat="50.668568" lon="6.407649">
        <ele>359.190000</ele>
        <time>2010-03-28T08:49:22Z</time>
      </trkpt>
      <trkpt lat="50.668626" lon="6.407611">
        <ele>359.190000</ele>
        <time>2010-03-28T08:49:27Z</time>
      </trkpt>
      <trkpt lat="50.668757" lon="6.407532">
        <ele>358.230000</ele>
        <time>2010-03-28T08:49:39Z</time>
      </trkpt>
      <trkpt lat="50.668881" lon="6.407492">
        <ele>356.310000</ele>
        <time>2010-03-28T08:49:49Z</time>
      </trkpt>
      <trkpt lat="50.668960" lon="6.407481">
        <ele>355.830000</ele>
        <time>2010-03-28T08:49:53Z</time>
      </trkpt>
      <trkpt lat="50.669038" lon="6.407474">
        <ele>354.860000</ele>
        <time>2010-03-28T08:49:59Z</time>
      </trkpt>
      <trkpt lat="50.669164" lon="6.407497">
        <ele>353.900000</ele>
        <time>2010-03-28T08:50:12Z</time>
      </trkpt>
      <trkpt lat="50.669310" lon="6.407484">
        <ele>353.420000</ele>
        <time>2010-03-28T08:50:23Z</time>
      </trkpt>
      <trkpt lat="50.669371" lon="6.407445">
        <ele>353.420000</ele>
        <time>2010-03-28T08:50:28Z</time>
      </trkpt>
      <trkpt lat="50.669405" lon="6.407441">
        <ele>353.420000</ele>
        <time>2010-03-28T08:50:31Z</time>
      </trkpt>
      <trkpt lat="50.669488" lon="6.407374">
        <ele>353.900000</ele>
        <time>2010-03-28T08:50:38Z</time>
      </trkpt>
      <trkpt lat="50.669537" lon="6.407357">
        <ele>353.900000</ele>
        <time>2010-03-28T08:50:41Z</time>
      </trkpt>
      <trkpt lat="50.669591" lon="6.407305">
        <ele>353.900000</ele>
        <time>2010-03-28T08:50:47Z</time>
      </trkpt>
      <trkpt lat="50.669665" lon="6.407321">
        <ele>353.420000</ele>
        <time>2010-03-28T08:50:51Z</time>
      </trkpt>
      <trkpt lat="50.669709" lon="6.407326">
        <ele>352.940000</ele>
        <time>2010-03-28T08:50:55Z</time>
      </trkpt>
      <trkpt lat="50.669778" lon="6.407269">
        <ele>353.420000</ele>
        <time>2010-03-28T08:51:03Z</time>
      </trkpt>
      <trkpt lat="50.669813" lon="6.407220">
        <ele>353.420000</ele>
        <time>2010-03-28T08:51:06Z</time>
      </trkpt>
      <trkpt lat="50.669859" lon="6.407209">
        <ele>352.940000</ele>
        <time>2010-03-28T08:51:09Z</time>
      </trkpt>
      <trkpt lat="50.669939" lon="6.407201">
        <ele>352.940000</ele>
        <time>2010-03-28T08:51:15Z</time>
      </trkpt>
      <trkpt lat="50.670173" lon="6.407039">
        <ele>351.500000</ele>
        <time>2010-03-28T08:51:35Z</time>
      </trkpt>
      <trkpt lat="50.670382" lon="6.406974">
        <ele>350.540000</ele>
        <time>2010-03-28T08:51:52Z</time>
      </trkpt>
      <trkpt lat="50.670580" lon="6.406816">
        <ele>350.540000</ele>
        <time>2010-03-28T08:52:13Z</time>
      </trkpt>
      <trkpt lat="50.670735" lon="6.406771">
        <ele>349.100000</ele>
        <time>2010-03-28T08:52:27Z</time>
      </trkpt>
      <trkpt lat="50.671015" lon="6.406720">
        <ele>348.130000</ele>
        <time>2010-03-28T08:52:48Z</time>
      </trkpt>
      <trkpt lat="50.671199" lon="6.406532">
        <ele>348.130000</ele>
        <time>2010-03-28T08:53:07Z</time>
      </trkpt>
      <trkpt lat="50.671353" lon="6.406378">
        <ele>348.130000</ele>
        <time>2010-03-28T08:53:17Z</time>
      </trkpt>
      <trkpt lat="50.671520" lon="6.406227">
        <ele>347.170000</ele>
        <time>2010-03-28T08:53:34Z</time>
      </trkpt>
      <trkpt lat="50.671705" lon="6.406191">
        <ele>346.210000</ele>
        <time>2010-03-28T08:53:53Z</time>
      </trkpt>
      <trkpt lat="50.671758" lon="6.406206">
        <ele>345.730000</ele>
        <time>2010-03-28T08:53:58Z</time>
      </trkpt>
      <trkpt lat="50.671943" lon="6.406280">
        <ele>344.770000</ele>
        <time>2010-03-28T08:54:17Z</time>
      </trkpt>
      <trkpt lat="50.672020" lon="6.406281">
        <ele>343.810000</ele>
        <time>2010-03-28T08:54:24Z</time>
      </trkpt>
      <trkpt lat="50.672154" lon="6.406302">
        <ele>344.290000</ele>
        <time>2010-03-28T08:54:31Z</time>
      </trkpt>
      <trkpt lat="50.672205" lon="6.406363">
        <ele>343.330000</ele>
        <time>2010-03-28T08:54:38Z</time>
      </trkpt>
      <trkpt lat="50.672333" lon="6.406463">
        <ele>341.890000</ele>
        <time>2010-03-28T08:54:50Z</time>
      </trkpt>
      <trkpt lat="50.672340" lon="6.406466">
        <ele>341.890000</ele>
        <time>2010-03-28T08:54:51Z</time>
      </trkpt>
      <trkpt lat="50.672451" lon="6.406533">
        <ele>341.410000</ele>
        <time>2010-03-28T08:55:00Z</time>
      </trkpt>
      <trkpt lat="50.672553" lon="6.406473">
        <ele>340.440000</ele>
        <time>2010-03-28T08:55:06Z</time>
      </trkpt>
      <trkpt lat="50.672599" lon="6.406437">
        <ele>340.440000</ele>
        <time>2010-03-28T08:55:12Z</time>
      </trkpt>
      <trkpt lat="50.672700" lon="6.406419">
        <ele>339.480000</ele>
        <time>2010-03-28T08:55:25Z</time>
      </trkpt>
      <trkpt lat="50.672854" lon="6.406365">
        <ele>339.000000</ele>
        <time>2010-03-28T08:55:36Z</time>
      </trkpt>
      <trkpt lat="50.672890" lon="6.406352">
        <ele>339.480000</ele>
        <time>2010-03-28T08:55:39Z</time>
      </trkpt>
      <trkpt lat="50.672944" lon="6.406390">
        <ele>339.480000</ele>
        <time>2010-03-28T08:55:45Z</time>
      </trkpt>
      <trkpt lat="50.673012" lon="6.406362">
        <ele>339.480000</ele>
        <time>2010-03-28T08:55:51Z</time>
      </trkpt>
      <trkpt lat="50.673212" lon="6.406548">
        <ele>339.000000</ele>
        <time>2010-03-28T08:56:02Z</time>
      </trkpt>
      <trkpt lat="50.673230" lon="6.406554">
        <ele>338.520000</ele>
        <time>2010-03-28T08:56:04Z</time>
      </trkpt>
      <trkpt lat="50.673296" lon="6.406581">
        <ele>338.040000</ele>
        <time>2010-03-28T08:56:08Z</time>
      </trkpt>
      <trkpt lat="50.673309" lon="6.406615">
        <ele>338.520000</ele>
        <time>2010-03-28T08:56:10Z</time>
      </trkpt>
      <trkpt lat="50.673445" lon="6.406683">
        <ele>336.600000</ele>
        <time>2010-03-28T08:56:22Z</time>
      </trkpt>
      <trkpt lat="50.673610" lon="6.406747">
        <ele>337.560000</ele>
        <time>2010-03-28T08:56:32Z</time>
      </trkpt>
      <trkpt lat="50.673630" lon="6.406728">
        <ele>337.080000</ele>
        <time>2010-03-28T08:56:34Z</time>
      </trkpt>
      <trkpt lat="50.673773" lon="6.406771">
        <ele>336.600000</ele>
        <time>2010-03-28T08:56:42Z</time>
      </trkpt>
      <trkpt lat="50.673802" lon="6.406768">
        <ele>336.600000</ele>
        <time>2010-03-28T08:56:44Z</time>
      </trkpt>
      <trkpt lat="50.673853" lon="6.406780">
        <ele>336.600000</ele>
        <time>2010-03-28T08:56:47Z</time>
      </trkpt>
      <trkpt lat="50.673972" lon="6.406727">
        <ele>336.120000</ele>
        <time>2010-03-28T08:56:58Z</time>
      </trkpt>
      <trkpt lat="50.674028" lon="6.406687">
        <ele>335.640000</ele>
        <time>2010-03-28T08:57:01Z</time>
      </trkpt>
      <trkpt lat="50.674077" lon="6.406624">
        <ele>335.640000</ele>
        <time>2010-03-28T08:57:05Z</time>
      </trkpt>
      <trkpt lat="50.674125" lon="6.406607">
        <ele>335.160000</ele>
        <time>2010-03-28T08:57:10Z</time>
      </trkpt>
      <trkpt lat="50.674244" lon="6.406519">
        <ele>334.680000</ele>
        <time>2010-03-28T08:57:16Z</time>
      </trkpt>
      <trkpt lat="50.674256" lon="6.406457">
        <ele>334.680000</ele>
        <time>2010-03-28T08:57:20Z</time>
      </trkpt>
      <trkpt lat="50.674401" lon="6.406378">
        <ele>334.200000</ele>
        <time>2010-03-28T08:57:32Z</time>
      </trkpt>
      <trkpt lat="50.674461" lon="6.406272">
        <ele>332.750000</ele>
        <time>2010-03-28T08:57:41Z</time>
      </trkpt>
      <trkpt lat="50.674545" lon="6.406208">
        <ele>332.270000</ele>
        <time>2010-03-28T08:57:48Z</time>
      </trkpt>
      <trkpt lat="50.674579" lon="6.406204">
        <ele>332.270000</ele>
        <time>2010-03-28T08:57:51Z</time>
      </trkpt>
      <trkpt lat="50.674664" lon="6.406149">
        <ele>331.790000</ele>
        <time>2010-03-28T08:57:59Z</time>
      </trkpt>
      <trkpt lat="50.674714" lon="6.406121">
        <ele>331.310000</ele>
        <time>2010-03-28T08:58:04Z</time>
      </trkpt>
      <trkpt lat="50.674800" lon="6.406029">
        <ele>330.830000</ele>
        <time>2010-03-28T08:58:13Z</time>
      </trkpt>
      <trkpt lat="50.674889" lon="6.405892">
        <ele>328.910000</ele>
        <time>2010-03-28T08:58:25Z</time>
      </trkpt>
      <trkpt lat="50.674947" lon="6.405830">
        <ele>328.910000</ele>
        <time>2010-03-28T08:58:30Z</time>
      </trkpt>
      <trkpt lat="50.674992" lon="6.405708">
        <ele>328.430000</ele>
        <time>2010-03-28T08:58:36Z</time>
      </trkpt>
      <trkpt lat="50.675056" lon="6.405635">
        <ele>327.950000</ele>
        <time>2010-03-28T08:58:42Z</time>
      </trkpt>
      <trkpt lat="50.675115" lon="6.405561">
        <ele>327.470000</ele>
        <time>2010-03-28T08:58:48Z</time>
      </trkpt>
      <trkpt lat="50.675144" lon="6.405376">
        <ele>326.990000</ele>
        <time>2010-03-28T08:58:55Z</time>
      </trkpt>
      <trkpt lat="50.675159" lon="6.405306">
        <ele>326.500000</ele>
        <time>2010-03-28T08:58:59Z</time>
      </trkpt>
      <trkpt lat="50.675238" lon="6.405025">
        <ele>325.540000</ele>
        <time>2010-03-28T08:59:12Z</time>
      </trkpt>
      <trkpt lat="50.675312" lon="6.405001">
        <ele>325.540000</ele>
        <time>2010-03-28T08:59:19Z</time>
      </trkpt>
      <trkpt lat="50.675344" lon="6.404945">
        <ele>325.060000</ele>
        <time>2010-03-28T08:59:23Z</time>
      </trkpt>
      <trkpt lat="50.675392" lon="6.404860">
        <ele>324.580000</ele>
        <time>2010-03-28T08:59:29Z</time>
      </trkpt>
      <trkpt lat="50.675509" lon="6.404763">
        <ele>323.620000</ele>
        <time>2010-03-28T08:59:42Z</time>
      </trkpt>
      <trkpt lat="50.675570" lon="6.404789">
        <ele>323.140000</ele>
        <time>2010-03-28T08:59:46Z</time>
      </trkpt>
      <trkpt lat="50.675601" lon="6.404739">
        <ele>322.660000</ele>
        <time>2010-03-28T08:59:49Z</time>
      </trkpt>
      <trkpt lat="50.675645" lon="6.404711">
        <ele>322.660000</ele>
        <time>2010-03-28T08:59:53Z</time>
      </trkpt>
      <trkpt lat="50.675640" lon="6.404534">
        <ele>322.180000</ele>
        <time>2010-03-28T08:59:57Z</time>
      </trkpt>
      <trkpt lat="50.675654" lon="6.404497">
        <ele>321.700000</ele>
        <time>2010-03-28T09:00:00Z</time>
      </trkpt>
      <trkpt lat="50.675703" lon="6.404388">
        <ele>320.740000</ele>
        <time>2010-03-28T09:00:10Z</time>
      </trkpt>
      <trkpt lat="50.675738" lon="6.404308">
        <ele>320.260000</ele>
        <time>2010-03-28T09:00:15Z</time>
      </trkpt>
      <trkpt lat="50.675754" lon="6.404287">
        <ele>319.780000</ele>
        <time>2010-03-28T09:00:17Z</time>
      </trkpt>
      <trkpt lat="50.675853" lon="6.404235">
        <ele>318.810000</ele>
        <time>2010-03-28T09:00:27Z</time>
      </trkpt>
      <trkpt lat="50.675930" lon="6.404094">
        <ele>317.850000</ele>
        <time>2010-03-28T09:00:39Z</time>
      </trkpt>
      <trkpt lat="50.675968" lon="6.403961">
        <ele>317.370000</ele>
        <time>2010-03-28T09:00:46Z</time>
      </trkpt>
      <trkpt lat="50.676019" lon="6.403916">
        <ele>317.370000</ele>
        <time>2010-03-28T09:00:50Z</time>
      </trkpt>
      <trkpt lat="50.676023" lon="6.403797">
        <ele>317.370000</ele>
        <time>2010-03-28T09:00:55Z</time>
      </trkpt>
      <trkpt lat="50.676020" lon="6.403748">
        <ele>317.370000</ele>
        <time>2010-03-28T09:00:57Z</time>
      </trkpt>
      <trkpt lat="50.676164" lon="6.403208">
        <ele>317.850000</ele>
        <time>2010-03-28T09:01:05Z</time>
      </trkpt>
      <trkpt lat="50.676248" lon="6.403164">
        <ele>317.370000</ele>
        <time>2010-03-28T09:01:19Z</time>
      </trkpt>
      <trkpt lat="50.676257" lon="6.403188">
        <ele>317.850000</ele>
        <time>2010-03-28T09:01:22Z</time>
      </trkpt>
      <trkpt lat="50.676433" lon="6.403069">
        <ele>317.370000</ele>
        <time>2010-03-28T09:01:28Z</time>
      </trkpt>
      <trkpt lat="50.676474" lon="6.403016">
        <ele>316.890000</ele>
        <time>2010-03-28T09:01:32Z</time>
      </trkpt>
      <trkpt lat="50.676487" lon="6.403007">
        <ele>317.370000</ele>
        <time>2010-03-28T09:01:35Z</time>
      </trkpt>
      <trkpt lat="50.676508" lon="6.402876">
        <ele>317.370000</ele>
        <time>2010-03-28T09:01:44Z</time>
      </trkpt>
      <trkpt lat="50.676637" lon="6.402786">
        <ele>317.850000</ele>
        <time>2010-03-28T09:01:57Z</time>
      </trkpt>
      <trkpt lat="50.676688" lon="6.402724">
        <ele>317.370000</ele>
        <time>2010-03-28T09:02:03Z</time>
      </trkpt>
      <trkpt lat="50.676707" lon="6.402705">
        <ele>317.850000</ele>
        <time>2010-03-28T09:02:06Z</time>
      </trkpt>
      <trkpt lat="50.676903" lon="6.402729">
        <ele>319.300000</ele>
        <time>2010-03-28T09:02:19Z</time>
      </trkpt>
      <trkpt lat="50.676934" lon="6.402703">
        <ele>319.300000</ele>
        <time>2010-03-28T09:02:22Z</time>
      </trkpt>
      <trkpt lat="50.676950" lon="6.402673">
        <ele>319.780000</ele>
        <time>2010-03-28T09:02:27Z</time>
      </trkpt>
      <trkpt lat="50.676969" lon="6.402595">
        <ele>320.260000</ele>
        <time>2010-03-28T09:02:31Z</time>
      </trkpt>
      <trkpt lat="50.676998" lon="6.402555">
        <ele>320.260000</ele>
        <time>2010-03-28T09:02:35Z</time>
      </trkpt>
      <trkpt lat="50.677126" lon="6.402407">
        <ele>320.740000</ele>
        <time>2010-03-28T09:02:39Z</time>
      </trkpt>
      <trkpt lat="50.677262" lon="6.402365">
        <ele>320.740000</ele>
        <time>2010-03-28T09:02:45Z</time>
      </trkpt>
      <trkpt lat="50.677385" lon="6.402442">
        <ele>321.700000</ele>
        <time>2010-03-28T09:02:52Z</time>
      </trkpt>
      <trkpt lat="50.677536" lon="6.402308">
        <ele>321.220000</ele>
        <time>2010-03-28T09:03:04Z</time>
      </trkpt>
      <trkpt lat="50.677541" lon="6.402294">
        <ele>321.220000</ele>
        <time>2010-03-28T09:03:05Z</time>
      </trkpt>
      <trkpt lat="50.677590" lon="6.402254">
        <ele>321.700000</ele>
        <time>2010-03-28T09:03:11Z</time>
      </trkpt>
      <trkpt lat="50.677680" lon="6.402200">
        <ele>321.220000</ele>
        <time>2010-03-28T09:03:23Z</time>
      </trkpt>
      <trkpt lat="50.677802" lon="6.402134">
        <ele>321.220000</ele>
        <time>2010-03-28T09:03:33Z</time>
      </trkpt>
      <trkpt lat="50.677835" lon="6.402117">
        <ele>321.220000</ele>
        <time>2010-03-28T09:03:36Z</time>
      </trkpt>
      <trkpt lat="50.677869" lon="6.402052">
        <ele>321.700000</ele>
        <time>2010-03-28T09:03:41Z</time>
      </trkpt>
      <trkpt lat="50.678007" lon="6.402037">
        <ele>321.700000</ele>
        <time>2010-03-28T09:03:52Z</time>
      </trkpt>
      <trkpt lat="50.678106" lon="6.401888">
        <ele>321.220000</ele>
        <time>2010-03-28T09:04:02Z</time>
      </trkpt>
      <trkpt lat="50.678127" lon="6.401876">
        <ele>321.700000</ele>
        <time>2010-03-28T09:04:04Z</time>
      </trkpt>
      <trkpt lat="50.678247" lon="6.401777">
        <ele>321.700000</ele>
        <time>2010-03-28T09:04:15Z</time>
      </trkpt>
      <trkpt lat="50.678260" lon="6.401776">
        <ele>322.180000</ele>
        <time>2010-03-28T09:04:16Z</time>
      </trkpt>
      <trkpt lat="50.678461" lon="6.401485">
        <ele>322.180000</ele>
        <time>2010-03-28T09:04:30Z</time>
      </trkpt>
      <trkpt lat="50.678490" lon="6.401449">
        <ele>322.180000</ele>
        <time>2010-03-28T09:04:33Z</time>
      </trkpt>
      <trkpt lat="50.678605" lon="6.401426">
        <ele>322.180000</ele>
        <time>2010-03-28T09:04:42Z</time>
      </trkpt>
      <trkpt lat="50.678675" lon="6.401336">
        <ele>322.660000</ele>
        <time>2010-03-28T09:04:50Z</time>
      </trkpt>
      <trkpt lat="50.678749" lon="6.401247">
        <ele>323.620000</ele>
        <time>2010-03-28T09:04:59Z</time>
      </trkpt>
      <trkpt lat="50.678869" lon="6.401094">
        <ele>324.580000</ele>
        <time>2010-03-28T09:05:13Z</time>
      </trkpt>
      <trkpt lat="50.678915" lon="6.401002">
        <ele>325.060000</ele>
        <time>2010-03-28T09:05:19Z</time>
      </trkpt>
      <trkpt lat="50.679030" lon="6.400865">
        <ele>325.060000</ele>
        <time>2010-03-28T09:05:31Z</time>
      </trkpt>
      <trkpt lat="50.679154" lon="6.400736">
        <ele>325.540000</ele>
        <time>2010-03-28T09:05:44Z</time>
      </trkpt>
      <trkpt lat="50.679244" lon="6.400665">
        <ele>326.500000</ele>
        <time>2010-03-28T09:05:52Z</time>
      </trkpt>
      <trkpt lat="50.679290" lon="6.400652">
        <ele>326.500000</ele>
        <time>2010-03-28T09:05:56Z</time>
      </trkpt>
      <trkpt lat="50.679354" lon="6.400649">
        <ele>326.990000</ele>
        <time>2010-03-28T09:06:02Z</time>
      </trkpt>
      <trkpt lat="50.679461" lon="6.400576">
        <ele>327.470000</ele>
        <time>2010-03-28T09:06:07Z</time>
      </trkpt>
      <trkpt lat="50.679485" lon="6.400584">
        <ele>326.990000</ele>
        <time>2010-03-28T09:06:09Z</time>
      </trkpt>
      <trkpt lat="50.679569" lon="6.400577">
        <ele>328.430000</ele>
        <time>2010-03-28T09:06:16Z</time>
      </trkpt>
      <trkpt lat="50.679646" lon="6.400435">
        <ele>329.870000</ele>
        <time>2010-03-28T09:06:28Z</time>
      </trkpt>
      <trkpt lat="50.679725" lon="6.400309">
        <ele>330.350000</ele>
        <time>2010-03-28T09:06:37Z</time>
      </trkpt>
      <trkpt lat="50.679822" lon="6.400161">
        <ele>331.310000</ele>
        <time>2010-03-28T09:06:43Z</time>
      </trkpt>
      <trkpt lat="50.679875" lon="6.400116">
        <ele>331.790000</ele>
        <time>2010-03-28T09:06:48Z</time>
      </trkpt>
      <trkpt lat="50.679910" lon="6.400118">
        <ele>332.270000</ele>
        <time>2010-03-28T09:06:51Z</time>
      </trkpt>
      <trkpt lat="50.679991" lon="6.400106">
        <ele>333.230000</ele>
        <time>2010-03-28T09:06:58Z</time>
      </trkpt>
      <trkpt lat="50.680099" lon="6.400039">
        <ele>334.680000</ele>
        <time>2010-03-28T09:07:11Z</time>
      </trkpt>
      <trkpt lat="50.680206" lon="6.400011">
        <ele>336.600000</ele>
        <time>2010-03-28T09:07:23Z</time>
      </trkpt>
      <trkpt lat="50.680270" lon="6.399962">
        <ele>337.560000</ele>
        <time>2010-03-28T09:07:31Z</time>
      </trkpt>
      <trkpt lat="50.680286" lon="6.399976">
        <ele>337.560000</ele>
        <time>2010-03-28T09:07:33Z</time>
      </trkpt>
      <trkpt lat="50.680367" lon="6.399931">
        <ele>339.480000</ele>
        <time>2010-03-28T09:07:42Z</time>
      </trkpt>
      <trkpt lat="50.680381" lon="6.399907">
        <ele>339.960000</ele>
        <time>2010-03-28T09:07:44Z</time>
      </trkpt>
      <trkpt lat="50.680372" lon="6.399683">
        <ele>341.410000</ele>
        <time>2010-03-28T09:07:53Z</time>
      </trkpt>
      <trkpt lat="50.680412" lon="6.399661">
        <ele>342.850000</ele>
        <time>2010-03-28T09:07:58Z</time>
      </trkpt>
      <trkpt lat="50.680468" lon="6.399651">
        <ele>343.330000</ele>
        <time>2010-03-28T09:08:03Z</time>
      </trkpt>
      <trkpt lat="50.680590" lon="6.399558">
        <ele>344.290000</ele>
        <time>2010-03-28T09:08:16Z</time>
      </trkpt>
      <trkpt lat="50.680713" lon="6.399462">
        <ele>345.730000</ele>
        <time>2010-03-28T09:08:27Z</time>
      </trkpt>
      <trkpt lat="50.680808" lon="6.399383">
        <ele>345.730000</ele>
        <time>2010-03-28T09:08:39Z</time>
      </trkpt>
      <trkpt lat="50.680871" lon="6.399321">
        <ele>345.730000</ele>
        <time>2010-03-28T09:08:47Z</time>
      </trkpt>
      <trkpt lat="50.681041" lon="6.399014">
        <ele>343.330000</ele>
        <time>2010-03-28T09:09:01Z</time>
      </trkpt>
      <trkpt lat="50.681090" lon="6.398857">
        <ele>340.440000</ele>
        <time>2010-03-28T09:09:16Z</time>
      </trkpt>
      <trkpt lat="50.681179" lon="6.398762">
        <ele>338.520000</ele>
        <time>2010-03-28T09:09:25Z</time>
      </trkpt>
      <trkpt lat="50.681245" lon="6.398650">
        <ele>338.040000</ele>
        <time>2010-03-28T09:09:46Z</time>
      </trkpt>
      <trkpt lat="50.681225" lon="6.398737">
        <ele>338.520000</ele>
        <time>2010-03-28T09:10:33Z</time>
      </trkpt>
      <trkpt lat="50.681267" lon="6.399093">
        <ele>340.440000</ele>
        <time>2010-03-28T09:10:51Z</time>
      </trkpt>
      <trkpt lat="50.681348" lon="6.399466">
        <ele>342.850000</ele>
        <time>2010-03-28T09:11:12Z</time>
      </trkpt>
      <trkpt lat="50.681391" lon="6.399637">
        <ele>345.730000</ele>
        <time>2010-03-28T09:11:23Z</time>
      </trkpt>
      <trkpt lat="50.681471" lon="6.399980">
        <ele>348.130000</ele>
        <time>2010-03-28T09:11:45Z</time>
      </trkpt>
      <trkpt lat="50.681578" lon="6.400264">
        <ele>350.060000</ele>
        <time>2010-03-28T09:12:06Z</time>
      </trkpt>
      <trkpt lat="50.681647" lon="6.400598">
        <ele>352.460000</ele>
        <time>2010-03-28T09:12:26Z</time>
      </trkpt>
      <trkpt lat="50.681610" lon="6.400928">
        <ele>354.860000</ele>
        <time>2010-03-28T09:12:45Z</time>
      </trkpt>
      <trkpt lat="50.681594" lon="6.401186">
        <ele>357.750000</ele>
        <time>2010-03-28T09:13:05Z</time>
      </trkpt>
      <trkpt lat="50.681556" lon="6.401266">
        <ele>358.710000</ele>
        <time>2010-03-28T09:13:09Z</time>
      </trkpt>
      <trkpt lat="50.681521" lon="6.401502">
        <ele>358.710000</ele>
        <time>2010-03-28T09:13:23Z</time>
      </trkpt>
      <trkpt lat="50.681516" lon="6.401620">
        <ele>357.750000</ele>
        <time>2010-03-28T09:13:28Z</time>
      </trkpt>
      <trkpt lat="50.681478" lon="6.401762">
        <ele>357.750000</ele>
        <time>2010-03-28T09:13:35Z</time>
      </trkpt>
      <trkpt lat="50.681473" lon="6.401789">
        <ele>357.750000</ele>
        <time>2010-03-28T09:13:37Z</time>
      </trkpt>
      <trkpt lat="50.681441" lon="6.401853">
        <ele>357.270000</ele>
        <time>2010-03-28T09:13:41Z</time>
      </trkpt>
      <trkpt lat="50.681403" lon="6.401914">
        <ele>357.270000</ele>
        <time>2010-03-28T09:13:45Z</time>
      </trkpt>
      <trkpt lat="50.681275" lon="6.402144">
        <ele>356.790000</ele>
        <time>2010-03-28T09:13:59Z</time>
      </trkpt>
      <trkpt lat="50.681216" lon="6.402265">
        <ele>356.310000</ele>
        <time>2010-03-28T09:14:08Z</time>
      </trkpt>
      <trkpt lat="50.681129" lon="6.402575">
        <ele>354.860000</ele>
        <time>2010-03-28T09:14:25Z</time>
      </trkpt>
      <trkpt lat="50.681034" lon="6.402842">
        <ele>353.900000</ele>
        <time>2010-03-28T09:14:40Z</time>
      </trkpt>
      <trkpt lat="50.681031" lon="6.402889">
        <ele>353.420000</ele>
        <time>2010-03-28T09:14:43Z</time>
      </trkpt>
      <trkpt lat="50.680974" lon="6.402941">
        <ele>352.940000</ele>
        <time>2010-03-28T09:14:49Z</time>
      </trkpt>
      <trkpt lat="50.680893" lon="6.403161">
        <ele>353.420000</ele>
        <time>2010-03-28T09:15:03Z</time>
      </trkpt>
      <trkpt lat="50.680860" lon="6.403268">
        <ele>353.420000</ele>
        <time>2010-03-28T09:15:10Z</time>
      </trkpt>
      <trkpt lat="50.680773" lon="6.403382">
        <ele>353.420000</ele>
        <time>2010-03-28T09:15:19Z</time>
      </trkpt>
      <trkpt lat="50.680749" lon="6.403590">
        <ele>352.940000</ele>
        <time>2010-03-28T09:15:31Z</time>
      </trkpt>
      <trkpt lat="50.680729" lon="6.403835">
        <ele>352.460000</ele>
        <time>2010-03-28T09:15:43Z</time>
      </trkpt>
      <trkpt lat="50.680710" lon="6.404001">
        <ele>352.460000</ele>
        <time>2010-03-28T09:15:51Z</time>
      </trkpt>
      <trkpt lat="50.680721" lon="6.404103">
        <ele>352.460000</ele>
        <time>2010-03-28T09:15:56Z</time>
      </trkpt>
      <trkpt lat="50.680644" lon="6.404429">
        <ele>351.980000</ele>
        <time>2010-03-28T09:16:10Z</time>
      </trkpt>
      <trkpt lat="50.680617" lon="6.404570">
        <ele>351.980000</ele>
        <time>2010-03-28T09:16:22Z</time>
      </trkpt>
      <trkpt lat="50.680593" lon="6.404602">
        <ele>351.980000</ele>
        <time>2010-03-28T09:16:25Z</time>
      </trkpt>
      <trkpt lat="50.680396" lon="6.404901">
        <ele>352.940000</ele>
        <time>2010-03-28T09:16:46Z</time>
      </trkpt>
      <trkpt lat="50.680389" lon="6.404910">
        <ele>352.940000</ele>
        <time>2010-03-28T09:16:47Z</time>
      </trkpt>
      <trkpt lat="50.680339" lon="6.404972">
        <ele>352.940000</ele>
        <time>2010-03-28T09:16:51Z</time>
      </trkpt>
      <trkpt lat="50.680295" lon="6.405161">
        <ele>352.940000</ele>
        <time>2010-03-28T09:17:03Z</time>
      </trkpt>
      <trkpt lat="50.680228" lon="6.405292">
        <ele>353.420000</ele>
        <time>2010-03-28T09:17:16Z</time>
      </trkpt>
      <trkpt lat="50.680218" lon="6.405336">
        <ele>353.420000</ele>
        <time>2010-03-28T09:17:19Z</time>
      </trkpt>
      <trkpt lat="50.680044" lon="6.405546">
        <ele>352.940000</ele>
        <time>2010-03-28T09:17:35Z</time>
      </trkpt>
      <trkpt lat="50.679959" lon="6.405697">
        <ele>352.460000</ele>
        <time>2010-03-28T09:17:47Z</time>
      </trkpt>
      <trkpt lat="50.679801" lon="6.405984">
        <ele>352.940000</ele>
        <time>2010-03-28T09:18:07Z</time>
      </trkpt>
      <trkpt lat="50.679658" lon="6.406175">
        <ele>353.420000</ele>
        <time>2010-03-28T09:18:21Z</time>
      </trkpt>
      <trkpt lat="50.679638" lon="6.406206">
        <ele>353.420000</ele>
        <time>2010-03-28T09:18:23Z</time>
      </trkpt>
      <trkpt lat="50.679562" lon="6.406338">
        <ele>353.420000</ele>
        <time>2010-03-28T09:18:32Z</time>
      </trkpt>
      <trkpt lat="50.679402" lon="6.406586">
        <ele>353.900000</ele>
        <time>2010-03-28T09:18:46Z</time>
      </trkpt>
      <trkpt lat="50.679367" lon="6.406625">
        <ele>353.900000</ele>
        <time>2010-03-28T09:18:50Z</time>
      </trkpt>
      <trkpt lat="50.679239" lon="6.406894">
        <ele>354.380000</ele>
        <time>2010-03-28T09:19:07Z</time>
      </trkpt>
      <trkpt lat="50.679136" lon="6.407064">
        <ele>354.860000</ele>
        <time>2010-03-28T09:19:20Z</time>
      </trkpt>
      <trkpt lat="50.679116" lon="6.407082">
        <ele>354.860000</ele>
        <time>2010-03-28T09:19:23Z</time>
      </trkpt>
      <trkpt lat="50.679070" lon="6.407103">
        <ele>354.860000</ele>
        <time>2010-03-28T09:19:29Z</time>
      </trkpt>
      <trkpt lat="50.679042" lon="6.407024">
        <ele>356.310000</ele>
        <time>2010-03-28T09:19:46Z</time>
      </trkpt>
      <trkpt lat="50.678902" lon="6.406853">
        <ele>358.710000</ele>
        <time>2010-03-28T09:20:37Z</time>
      </trkpt>
      <trkpt lat="50.678865" lon="6.406834">
        <ele>359.670000</ele>
        <time>2010-03-28T09:20:55Z</time>
      </trkpt>
      <trkpt lat="50.678720" lon="6.406615">
        <ele>361.110000</ele>
        <time>2010-03-28T09:21:08Z</time>
      </trkpt>
      <trkpt lat="50.678680" lon="6.406594">
        <ele>361.590000</ele>
        <time>2010-03-28T09:21:12Z</time>
      </trkpt>
      <trkpt lat="50.678559" lon="6.406549">
        <ele>363.040000</ele>
        <time>2010-03-28T09:21:22Z</time>
      </trkpt>
      <trkpt lat="50.678487" lon="6.406436">
        <ele>364.000000</ele>
        <time>2010-03-28T09:21:34Z</time>
      </trkpt>
      <trkpt lat="50.678477" lon="6.406407">
        <ele>364.000000</ele>
        <time>2010-03-28T09:21:36Z</time>
      </trkpt>
      <trkpt lat="50.678412" lon="6.406366">
        <ele>364.480000</ele>
        <time>2010-03-28T09:21:45Z</time>
      </trkpt>
      <trkpt lat="50.678192" lon="6.406386">
        <ele>364.000000</ele>
        <time>2010-03-28T09:22:00Z</time>
      </trkpt>
      <trkpt lat="50.678177" lon="6.406368">
        <ele>363.520000</ele>
        <time>2010-03-28T09:22:03Z</time>
      </trkpt>
      <trkpt lat="50.677979" lon="6.406389">
        <ele>363.520000</ele>
        <time>2010-03-28T09:22:17Z</time>
      </trkpt>
      <trkpt lat="50.677959" lon="6.406390">
        <ele>364.000000</ele>
        <time>2010-03-28T09:22:19Z</time>
      </trkpt>
      <trkpt lat="50.677802" lon="6.406421">
        <ele>364.000000</ele>
        <time>2010-03-28T09:22:33Z</time>
      </trkpt>
      <trkpt lat="50.677689" lon="6.406470">
        <ele>364.960000</ele>
        <time>2010-03-28T09:22:43Z</time>
      </trkpt>
      <trkpt lat="50.677576" lon="6.406502">
        <ele>364.480000</ele>
        <time>2010-03-28T09:22:51Z</time>
      </trkpt>
      <trkpt lat="50.677496" lon="6.406501">
        <ele>364.480000</ele>
        <time>2010-03-28T09:22:58Z</time>
      </trkpt>
      <trkpt lat="50.677335" lon="6.406441">
        <ele>364.480000</ele>
        <time>2010-03-28T09:23:11Z</time>
      </trkpt>
      <trkpt lat="50.677257" lon="6.406386">
        <ele>364.960000</ele>
        <time>2010-03-28T09:23:18Z</time>
      </trkpt>
      <trkpt lat="50.677241" lon="6.406375">
        <ele>364.960000</ele>
        <time>2010-03-28T09:23:20Z</time>
      </trkpt>
      <trkpt lat="50.677005" lon="6.406425">
        <ele>364.960000</ele>
        <time>2010-03-28T09:23:36Z</time>
      </trkpt>
      <trkpt lat="50.676910" lon="6.406510">
        <ele>364.960000</ele>
        <time>2010-03-28T09:23:45Z</time>
      </trkpt>
      <trkpt lat="50.676879" lon="6.406556">
        <ele>366.880000</ele>
        <time>2010-03-28T09:23:49Z</time>
      </trkpt>
      <trkpt lat="50.676732" lon="6.406724">
        <ele>365.920000</ele>
        <time>2010-03-28T09:24:03Z</time>
      </trkpt>
      <trkpt lat="50.676678" lon="6.406797">
        <ele>366.400000</ele>
        <time>2010-03-28T09:24:08Z</time>
      </trkpt>
      <trkpt lat="50.676564" lon="6.406911">
        <ele>365.440000</ele>
        <time>2010-03-28T09:24:22Z</time>
      </trkpt>
      <trkpt lat="50.676453" lon="6.407045">
        <ele>364.480000</ele>
        <time>2010-03-28T09:24:35Z</time>
      </trkpt>
      <trkpt lat="50.676273" lon="6.407310">
        <ele>364.960000</ele>
        <time>2010-03-28T09:24:52Z</time>
      </trkpt>
      <trkpt lat="50.676122" lon="6.407462">
        <ele>364.960000</ele>
        <time>2010-03-28T09:25:06Z</time>
      </trkpt>
      <trkpt lat="50.676056" lon="6.407525">
        <ele>364.960000</ele>
        <time>2010-03-28T09:25:12Z</time>
      </trkpt>
      <trkpt lat="50.675983" lon="6.407577">
        <ele>365.920000</ele>
        <time>2010-03-28T09:25:19Z</time>
      </trkpt>
      <trkpt lat="50.675796" lon="6.407629">
        <ele>367.840000</ele>
        <time>2010-03-28T09:25:34Z</time>
      </trkpt>
      <trkpt lat="50.675627" lon="6.407669">
        <ele>368.800000</ele>
        <time>2010-03-28T09:25:49Z</time>
      </trkpt>
      <trkpt lat="50.675429" lon="6.407760">
        <ele>369.280000</ele>
        <time>2010-03-28T09:26:04Z</time>
      </trkpt>
      <trkpt lat="50.675329" lon="6.407806">
        <ele>369.280000</ele>
        <time>2010-03-28T09:26:16Z</time>
      </trkpt>
      <trkpt lat="50.675183" lon="6.407947">
        <ele>369.760000</ele>
        <time>2010-03-28T09:26:30Z</time>
      </trkpt>
      <trkpt lat="50.675087" lon="6.408005">
        <ele>369.760000</ele>
        <time>2010-03-28T09:26:36Z</time>
      </trkpt>
      <trkpt lat="50.674926" lon="6.407940">
        <ele>371.690000</ele>
        <time>2010-03-28T09:26:48Z</time>
      </trkpt>
      <trkpt lat="50.674903" lon="6.407933">
        <ele>371.690000</ele>
        <time>2010-03-28T09:26:50Z</time>
      </trkpt>
      <trkpt lat="50.674809" lon="6.407888">
        <ele>371.690000</ele>
        <time>2010-03-28T09:26:57Z</time>
      </trkpt>
      <trkpt lat="50.674734" lon="6.407835">
        <ele>372.170000</ele>
        <time>2010-03-28T09:27:03Z</time>
      </trkpt>
      <trkpt lat="50.674658" lon="6.407743">
        <ele>370.730000</ele>
        <time>2010-03-28T09:27:16Z</time>
      </trkpt>
      <trkpt lat="50.674519" lon="6.407660">
        <ele>369.280000</ele>
        <time>2010-03-28T09:27:28Z</time>
      </trkpt>
      <trkpt lat="50.674394" lon="6.407579">
        <ele>368.320000</ele>
        <time>2010-03-28T09:27:38Z</time>
      </trkpt>
      <trkpt lat="50.674258" lon="6.407480">
        <ele>366.880000</ele>
        <time>2010-03-28T09:27:52Z</time>
      </trkpt>
      <trkpt lat="50.674154" lon="6.407541">
        <ele>366.400000</ele>
        <time>2010-03-28T09:28:10Z</time>
      </trkpt>
      <trkpt lat="50.674012" lon="6.407500">
        <ele>365.920000</ele>
        <time>2010-03-28T09:28:22Z</time>
      </trkpt>
      <trkpt lat="50.673958" lon="6.407521">
        <ele>365.440000</ele>
        <time>2010-03-28T09:28:25Z</time>
      </trkpt>
      <trkpt lat="50.673893" lon="6.407508">
        <ele>364.960000</ele>
        <time>2010-03-28T09:28:29Z</time>
      </trkpt>
      <trkpt lat="50.673797" lon="6.407568">
        <ele>364.480000</ele>
        <time>2010-03-28T09:28:38Z</time>
      </trkpt>
      <trkpt lat="50.673702" lon="6.407496">
        <ele>364.000000</ele>
        <time>2010-03-28T09:28:48Z</time>
      </trkpt>
      <trkpt lat="50.673522" lon="6.407484">
        <ele>363.040000</ele>
        <time>2010-03-28T09:29:03Z</time>
      </trkpt>
      <trkpt lat="50.673272" lon="6.407497">
        <ele>362.070000</ele>
        <time>2010-03-28T09:29:20Z</time>
      </trkpt>
      <trkpt lat="50.673018" lon="6.407432">
        <ele>361.110000</ele>
        <time>2010-03-28T09:29:40Z</time>
      </trkpt>
      <trkpt lat="50.672852" lon="6.407388">
        <ele>361.110000</ele>
        <time>2010-03-28T09:29:56Z</time>
      </trkpt>
      <trkpt lat="50.672778" lon="6.407353">
        <ele>360.150000</ele>
        <time>2010-03-28T09:30:10Z</time>
      </trkpt>
      <trkpt lat="50.672597" lon="6.407304">
        <ele>360.630000</ele>
        <time>2010-03-28T09:30:34Z</time>
      </trkpt>
      <trkpt lat="50.672435" lon="6.407266">
        <ele>361.110000</ele>
        <time>2010-03-28T09:30:45Z</time>
      </trkpt>
      <trkpt lat="50.672444" lon="6.407185">
        <ele>361.110000</ele>
        <time>2010-03-28T09:30:48Z</time>
      </trkpt>
      <trkpt lat="50.672384" lon="6.407166">
        <ele>360.630000</ele>
        <time>2010-03-28T09:30:52Z</time>
      </trkpt>
      <trkpt lat="50.672227" lon="6.407113">
        <ele>360.630000</ele>
        <time>2010-03-28T09:31:05Z</time>
      </trkpt>
      <trkpt lat="50.672081" lon="6.407048">
        <ele>359.670000</ele>
        <time>2010-03-28T09:31:18Z</time>
      </trkpt>
      <trkpt lat="50.671960" lon="6.406930">
        <ele>359.190000</ele>
        <time>2010-03-28T09:31:32Z</time>
      </trkpt>
      <trkpt lat="50.671796" lon="6.406767">
        <ele>357.270000</ele>
        <time>2010-03-28T09:31:46Z</time>
      </trkpt>
      <trkpt lat="50.671623" lon="6.406791">
        <ele>355.340000</ele>
        <time>2010-03-28T09:32:00Z</time>
      </trkpt>
      <trkpt lat="50.671573" lon="6.406737">
        <ele>354.860000</ele>
        <time>2010-03-28T09:32:04Z</time>
      </trkpt>
      <trkpt lat="50.671451" lon="6.406612">
        <ele>352.940000</ele>
        <time>2010-03-28T09:32:15Z</time>
      </trkpt>
      <trkpt lat="50.671378" lon="6.406584">
        <ele>351.980000</ele>
        <time>2010-03-28T09:32:21Z</time>
      </trkpt>
      <trkpt lat="50.671347" lon="6.406573">
        <ele>351.980000</ele>
        <time>2010-03-28T09:32:24Z</time>
      </trkpt>
      <trkpt lat="50.671193" lon="6.406531">
        <ele>350.060000</ele>
        <time>2010-03-28T09:32:37Z</time>
      </trkpt>
      <trkpt lat="50.671057" lon="6.406520">
        <ele>347.170000</ele>
        <time>2010-03-28T09:32:51Z</time>
      </trkpt>
      <trkpt lat="50.671018" lon="6.406565">
        <ele>346.690000</ele>
        <time>2010-03-28T09:32:55Z</time>
      </trkpt>
      <trkpt lat="50.670783" lon="6.406669">
        <ele>345.250000</ele>
        <time>2010-03-28T09:33:14Z</time>
      </trkpt>
      <trkpt lat="50.670627" lon="6.406756">
        <ele>344.770000</ele>
        <time>2010-03-28T09:33:30Z</time>
      </trkpt>
      <trkpt lat="50.670434" lon="6.406979">
        <ele>344.770000</ele>
        <time>2010-03-28T09:33:49Z</time>
      </trkpt>
      <trkpt lat="50.670231" lon="6.407200">
        <ele>346.210000</ele>
        <time>2010-03-28T09:34:07Z</time>
      </trkpt>
      <trkpt lat="50.670116" lon="6.407234">
        <ele>347.170000</ele>
        <time>2010-03-28T09:34:16Z</time>
      </trkpt>
      <trkpt lat="50.670023" lon="6.407276">
        <ele>348.130000</ele>
        <time>2010-03-28T09:34:27Z</time>
      </trkpt>
      <trkpt lat="50.669975" lon="6.407326">
        <ele>348.620000</ele>
        <time>2010-03-28T09:34:32Z</time>
      </trkpt>
      <trkpt lat="50.669915" lon="6.407333">
        <ele>349.100000</ele>
        <time>2010-03-28T09:34:40Z</time>
      </trkpt>
      <trkpt lat="50.669698" lon="6.407507">
        <ele>350.540000</ele>
        <time>2010-03-28T09:35:01Z</time>
      </trkpt>
      <trkpt lat="50.669472" lon="6.407721">
        <ele>351.500000</ele>
        <time>2010-03-28T09:35:23Z</time>
      </trkpt>
      <trkpt lat="50.669139" lon="6.407569">
        <ele>352.460000</ele>
        <time>2010-03-28T09:35:43Z</time>
      </trkpt>
      <trkpt lat="50.669115" lon="6.407566">
        <ele>352.460000</ele>
        <time>2010-03-28T09:35:45Z</time>
      </trkpt>
      <trkpt lat="50.669064" lon="6.407569">
        <ele>351.980000</ele>
        <time>2010-03-28T09:35:50Z</time>
      </trkpt>
      <trkpt lat="50.669088" lon="6.407304">
        <ele>350.540000</ele>
        <time>2010-03-28T09:36:02Z</time>
      </trkpt>
      <trkpt lat="50.669105" lon="6.407053">
        <ele>349.100000</ele>
        <time>2010-03-28T09:36:14Z</time>
      </trkpt>
      <trkpt lat="50.669209" lon="6.406937">
        <ele>347.650000</ele>
        <time>2010-03-28T09:36:26Z</time>
      </trkpt>
      <trkpt lat="50.669346" lon="6.406838">
        <ele>348.130000</ele>
        <time>2010-03-28T09:36:38Z</time>
      </trkpt>
      <trkpt lat="50.669605" lon="6.406603">
        <ele>348.130000</ele>
        <time>2010-03-28T09:37:05Z</time>
      </trkpt>
      <trkpt lat="50.669709" lon="6.406311">
        <ele>347.650000</ele>
        <time>2010-03-28T09:37:23Z</time>
      </trkpt>
      <trkpt lat="50.669730" lon="6.406284">
        <ele>347.650000</ele>
        <time>2010-03-28T09:37:25Z</time>
      </trkpt>
      <trkpt lat="50.669929" lon="6.406035">
        <ele>347.650000</ele>
        <time>2010-03-28T09:37:45Z</time>
      </trkpt>
      <trkpt lat="50.670137" lon="6.405630">
        <ele>347.650000</ele>
        <time>2010-03-28T09:38:08Z</time>
      </trkpt>
      <trkpt lat="50.670169" lon="6.405577">
        <ele>347.650000</ele>
        <time>2010-03-28T09:38:11Z</time>
      </trkpt>
      <trkpt lat="50.670264" lon="6.405432">
        <ele>347.650000</ele>
        <time>2010-03-28T09:38:23Z</time>
      </trkpt>
      <trkpt lat="50.670276" lon="6.405243">
        <ele>349.580000</ele>
        <time>2010-03-28T09:38:41Z</time>
      </trkpt>
      <trkpt lat="50.670208" lon="6.405185">
        <ele>352.940000</ele>
        <time>2010-03-28T09:38:55Z</time>
      </trkpt>
      <trkpt lat="50.670105" lon="6.405271">
        <ele>353.900000</ele>
        <time>2010-03-28T09:39:15Z</time>
      </trkpt>
      <trkpt lat="50.670017" lon="6.405463">
        <ele>354.380000</ele>
        <time>2010-03-28T09:39:34Z</time>
      </trkpt>
      <trkpt lat="50.669910" lon="6.405499">
        <ele>357.270000</ele>
        <time>2010-03-28T09:39:55Z</time>
      </trkpt>
      <trkpt lat="50.669880" lon="6.405507">
        <ele>357.270000</ele>
        <time>2010-03-28T09:39:57Z</time>
      </trkpt>
      <trkpt lat="50.669774" lon="6.405711">
        <ele>361.110000</ele>
        <time>2010-03-28T09:40:15Z</time>
      </trkpt>
      <trkpt lat="50.669624" lon="6.405858">
        <ele>364.000000</ele>
        <time>2010-03-28T09:40:31Z</time>
      </trkpt>
      <trkpt lat="50.669481" lon="6.405933">
        <ele>366.880000</ele>
        <time>2010-03-28T09:40:47Z</time>
      </trkpt>
      <trkpt lat="50.669294" lon="6.406105">
        <ele>369.760000</ele>
        <time>2010-03-28T09:41:07Z</time>
      </trkpt>
      <trkpt lat="50.669266" lon="6.406159">
        <ele>370.240000</ele>
        <time>2010-03-28T09:41:10Z</time>
      </trkpt>
      <trkpt lat="50.669075" lon="6.406348">
        <ele>373.130000</ele>
        <time>2010-03-28T09:41:28Z</time>
      </trkpt>
      <trkpt lat="50.668936" lon="6.406324">
        <ele>375.530000</ele>
        <time>2010-03-28T09:41:45Z</time>
      </trkpt>
      <trkpt lat="50.668741" lon="6.406048">
        <ele>378.900000</ele>
        <time>2010-03-28T09:42:07Z</time>
      </trkpt>
      <trkpt lat="50.668764" lon="6.405950">
        <ele>379.380000</ele>
        <time>2010-03-28T09:42:13Z</time>
      </trkpt>
      <trkpt lat="50.668755" lon="6.405631">
        <ele>381.780000</ele>
        <time>2010-03-28T09:42:31Z</time>
      </trkpt>
      <trkpt lat="50.668719" lon="6.405449">
        <ele>383.220000</ele>
        <time>2010-03-28T09:42:43Z</time>
      </trkpt>
      <trkpt lat="50.668670" lon="6.405179">
        <ele>386.110000</ele>
        <time>2010-03-28T09:43:02Z</time>
      </trkpt>
      <trkpt lat="50.668601" lon="6.404937">
        <ele>385.630000</ele>
        <time>2010-03-28T09:43:17Z</time>
      </trkpt>
      <trkpt lat="50.668593" lon="6.404660">
        <ele>385.630000</ele>
        <time>2010-03-28T09:43:29Z</time>
      </trkpt>
      <trkpt lat="50.668586" lon="6.404570">
        <ele>386.110000</ele>
        <time>2010-03-28T09:43:33Z</time>
      </trkpt>
      <trkpt lat="50.668577" lon="6.404545">
        <ele>386.110000</ele>
        <time>2010-03-28T09:43:35Z</time>
      </trkpt>
      <trkpt lat="50.668570" lon="6.404508">
        <ele>386.110000</ele>
        <time>2010-03-28T09:43:38Z</time>
      </trkpt>
      <trkpt lat="50.668543" lon="6.404326">
        <ele>387.070000</ele>
        <time>2010-03-28T09:43:53Z</time>
      </trkpt>
      <trkpt lat="50.668477" lon="6.404036">
        <ele>388.990000</ele>
        <time>2010-03-28T09:44:13Z</time>
      </trkpt>
      <trkpt lat="50.668415" lon="6.403717">
        <ele>389.470000</ele>
        <time>2010-03-28T09:44:30Z</time>
      </trkpt>
      <trkpt lat="50.668412" lon="6.403703">
        <ele>389.470000</ele>
        <time>2010-03-28T09:44:31Z</time>
      </trkpt>
      <trkpt lat="50.668282" lon="6.403387">
        <ele>389.950000</ele>
        <time>2010-03-28T09:44:49Z</time>
      </trkpt>
      <trkpt lat="50.668161" lon="6.403179">
        <ele>389.950000</ele>
        <time>2010-03-28T09:45:05Z</time>
      </trkpt>
      <trkpt lat="50.668008" lon="6.402960">
        <ele>390.910000</ele>
        <time>2010-03-28T09:45:23Z</time>
      </trkpt>
      <trkpt lat="50.667873" lon="6.402791">
        <ele>392.360000</ele>
        <time>2010-03-28T09:45:40Z</time>
      </trkpt>
      <trkpt lat="50.667686" lon="6.402607">
        <ele>393.320000</ele>
        <time>2010-03-28T09:45:58Z</time>
      </trkpt>
      <trkpt lat="50.667664" lon="6.402564">
        <ele>393.320000</ele>
        <time>2010-03-28T09:46:00Z</time>
      </trkpt>
      <trkpt lat="50.667550" lon="6.402384">
        <ele>394.760000</ele>
        <time>2010-03-28T09:46:14Z</time>
      </trkpt>
      <trkpt lat="50.667438" lon="6.402244">
        <ele>395.720000</ele>
        <time>2010-03-28T09:46:29Z</time>
      </trkpt>
      <trkpt lat="50.667278" lon="6.402007">
        <ele>398.600000</ele>
        <time>2010-03-28T09:46:51Z</time>
      </trkpt>
      <trkpt lat="50.667141" lon="6.401819">
        <ele>400.050000</ele>
        <time>2010-03-28T09:47:08Z</time>
      </trkpt>
      <trkpt lat="50.666961" lon="6.401699">
        <ele>400.050000</ele>
        <time>2010-03-28T09:47:23Z</time>
      </trkpt>
      <trkpt lat="50.666795" lon="6.401528">
        <ele>400.050000</ele>
        <time>2010-03-28T09:47:36Z</time>
      </trkpt>
      <trkpt lat="50.666733" lon="6.401486">
        <ele>400.050000</ele>
        <time>2010-03-28T09:47:42Z</time>
      </trkpt>
      <trkpt lat="50.666595" lon="6.401727">
        <ele>400.050000</ele>
        <time>2010-03-28T09:47:58Z</time>
      </trkpt>
      <trkpt lat="50.666650" lon="6.401898">
        <ele>401.010000</ele>
        <time>2010-03-28T09:48:10Z</time>
      </trkpt>
      <trkpt lat="50.666795" lon="6.402293">
        <ele>403.410000</ele>
        <time>2010-03-28T09:48:32Z</time>
      </trkpt>
      <trkpt lat="50.666832" lon="6.402417">
        <ele>404.370000</ele>
        <time>2010-03-28T09:48:39Z</time>
      </trkpt>
      <trkpt lat="50.666790" lon="6.402745">
        <ele>406.770000</ele>
        <time>2010-03-28T09:48:54Z</time>
      </trkpt>
      <trkpt lat="50.666735" lon="6.402696">
        <ele>408.220000</ele>
        <time>2010-03-28T09:49:02Z</time>
      </trkpt>
      <trkpt lat="50.666609" lon="6.402392">
        <ele>410.140000</ele>
        <time>2010-03-28T09:49:17Z</time>
      </trkpt>
      <trkpt lat="50.666524" lon="6.402235">
        <ele>410.620000</ele>
        <time>2010-03-28T09:49:30Z</time>
      </trkpt>
      <trkpt lat="50.666420" lon="6.401992">
        <ele>411.100000</ele>
        <time>2010-03-28T09:49:44Z</time>
      </trkpt>
      <trkpt lat="50.666397" lon="6.401921">
        <ele>411.580000</ele>
        <time>2010-03-28T09:49:47Z</time>
      </trkpt>
      <trkpt lat="50.666351" lon="6.401773">
        <ele>412.060000</ele>
        <time>2010-03-28T09:50:00Z</time>
      </trkpt>
      <trkpt lat="50.666335" lon="6.401728">
        <ele>413.020000</ele>
        <time>2010-03-28T09:50:06Z</time>
      </trkpt>
      <trkpt lat="50.666218" lon="6.401595">
        <ele>414.470000</ele>
        <time>2010-03-28T09:50:14Z</time>
      </trkpt>
      <trkpt lat="50.666113" lon="6.401397">
        <ele>415.430000</ele>
        <time>2010-03-28T09:50:28Z</time>
      </trkpt>
      <trkpt lat="50.666022" lon="6.401189">
        <ele>417.350000</ele>
        <time>2010-03-28T09:50:42Z</time>
      </trkpt>
      <trkpt lat="50.666001" lon="6.401154">
        <ele>416.870000</ele>
        <time>2010-03-28T09:50:45Z</time>
      </trkpt>
      <trkpt lat="50.665953" lon="6.401148">
        <ele>417.830000</ele>
        <time>2010-03-28T09:50:52Z</time>
      </trkpt>
      <trkpt lat="50.665938" lon="6.401295">
        <ele>417.830000</ele>
        <time>2010-03-28T09:50:58Z</time>
      </trkpt>
      <trkpt lat="50.665939" lon="6.401568">
        <ele>419.270000</ele>
        <time>2010-03-28T09:51:13Z</time>
      </trkpt>
      <trkpt lat="50.665943" lon="6.401630">
        <ele>418.310000</ele>
        <time>2010-03-28T09:51:17Z</time>
      </trkpt>
      <trkpt lat="50.665947" lon="6.401833">
        <ele>419.750000</ele>
        <time>2010-03-28T09:51:27Z</time>
      </trkpt>
      <trkpt lat="50.665940" lon="6.402030">
        <ele>420.230000</ele>
        <time>2010-03-28T09:51:36Z</time>
      </trkpt>
      <trkpt lat="50.665958" lon="6.402212">
        <ele>421.190000</ele>
        <time>2010-03-28T09:51:48Z</time>
      </trkpt>
      <trkpt lat="50.665961" lon="6.402448">
        <ele>421.680000</ele>
        <time>2010-03-28T09:52:00Z</time>
      </trkpt>
      <trkpt lat="50.665959" lon="6.402718">
        <ele>421.190000</ele>
        <time>2010-03-28T09:52:12Z</time>
      </trkpt>
      <trkpt lat="50.665968" lon="6.403031">
        <ele>421.680000</ele>
        <time>2010-03-28T09:52:28Z</time>
      </trkpt>
      <trkpt lat="50.665975" lon="6.403302">
        <ele>420.710000</ele>
        <time>2010-03-28T09:52:43Z</time>
      </trkpt>
      <trkpt lat="50.665980" lon="6.403551">
        <ele>420.710000</ele>
        <time>2010-03-28T09:52:59Z</time>
      </trkpt>
      <trkpt lat="50.665985" lon="6.403645">
        <ele>420.710000</ele>
        <time>2010-03-28T09:53:05Z</time>
      </trkpt>
      <trkpt lat="50.665874" lon="6.403826">
        <ele>421.190000</ele>
        <time>2010-03-28T09:53:19Z</time>
      </trkpt>
      <trkpt lat="50.665793" lon="6.403838">
        <ele>421.190000</ele>
        <time>2010-03-28T09:53:26Z</time>
      </trkpt>
      <trkpt lat="50.665760" lon="6.403843">
        <ele>421.680000</ele>
        <time>2010-03-28T09:53:29Z</time>
      </trkpt>
      <trkpt lat="50.665618" lon="6.403895">
        <ele>421.190000</ele>
        <time>2010-03-28T09:53:41Z</time>
      </trkpt>
      <trkpt lat="50.665527" lon="6.403927">
        <ele>421.190000</ele>
        <time>2010-03-28T09:53:51Z</time>
      </trkpt>
      <trkpt lat="50.665489" lon="6.403926">
        <ele>421.190000</ele>
        <time>2010-03-28T09:53:55Z</time>
      </trkpt>
      <trkpt lat="50.665296" lon="6.404002">
        <ele>421.680000</ele>
        <time>2010-03-28T09:54:09Z</time>
      </trkpt>
      <trkpt lat="50.665132" lon="6.404032">
        <ele>421.680000</ele>
        <time>2010-03-28T09:54:23Z</time>
      </trkpt>
      <trkpt lat="50.664991" lon="6.404075">
        <ele>422.640000</ele>
        <time>2010-03-28T09:54:35Z</time>
      </trkpt>
      <trkpt lat="50.664874" lon="6.403976">
        <ele>424.080000</ele>
        <time>2010-03-28T09:54:48Z</time>
      </trkpt>
      <trkpt lat="50.664681" lon="6.403936">
        <ele>423.600000</ele>
        <time>2010-03-28T09:55:02Z</time>
      </trkpt>
      <trkpt lat="50.664535" lon="6.403819">
        <ele>423.600000</ele>
        <time>2010-03-28T09:55:16Z</time>
      </trkpt>
      <trkpt lat="50.664349" lon="6.403805">
        <ele>423.120000</ele>
        <time>2010-03-28T09:55:30Z</time>
      </trkpt>
      <trkpt lat="50.664177" lon="6.403770">
        <ele>423.120000</ele>
        <time>2010-03-28T09:55:45Z</time>
      </trkpt>
      <trkpt lat="50.664048" lon="6.403709">
        <ele>422.640000</ele>
        <time>2010-03-28T09:55:56Z</time>
      </trkpt>
      <trkpt lat="50.664040" lon="6.403662">
        <ele>422.640000</ele>
        <time>2010-03-28T09:55:58Z</time>
      </trkpt>
      <trkpt lat="50.663847" lon="6.403600">
        <ele>422.640000</ele>
        <time>2010-03-28T09:56:12Z</time>
      </trkpt>
      <trkpt lat="50.663730" lon="6.403670">
        <ele>421.680000</ele>
        <time>2010-03-28T09:56:25Z</time>
      </trkpt>
      <trkpt lat="50.663684" lon="6.403923">
        <ele>422.160000</ele>
        <time>2010-03-28T09:56:39Z</time>
      </trkpt>
      <trkpt lat="50.663692" lon="6.404176">
        <ele>423.120000</ele>
        <time>2010-03-28T09:56:56Z</time>
      </trkpt>
      <trkpt lat="50.663778" lon="6.404451">
        <ele>425.520000</ele>
        <time>2010-03-28T09:57:11Z</time>
      </trkpt>
      <trkpt lat="50.663777" lon="6.404677">
        <ele>427.440000</ele>
        <time>2010-03-28T09:57:26Z</time>
      </trkpt>
      <trkpt lat="50.663819" lon="6.404936">
        <ele>428.400000</ele>
        <time>2010-03-28T09:57:39Z</time>
      </trkpt>
      <trkpt lat="50.663815" lon="6.405006">
        <ele>428.890000</ele>
        <time>2010-03-28T09:57:43Z</time>
      </trkpt>
      <trkpt lat="50.663797" lon="6.405065">
        <ele>429.370000</ele>
        <time>2010-03-28T09:57:45Z</time>
      </trkpt>
      <trkpt lat="50.663798" lon="6.405114">
        <ele>429.370000</ele>
        <time>2010-03-28T09:57:48Z</time>
      </trkpt>
      <trkpt lat="50.663821" lon="6.405199">
        <ele>429.850000</ele>
        <time>2010-03-28T09:57:54Z</time>
      </trkpt>
      <trkpt lat="50.663746" lon="6.405436">
        <ele>430.810000</ele>
        <time>2010-03-28T09:58:08Z</time>
      </trkpt>
      <trkpt lat="50.663772" lon="6.405697">
        <ele>432.250000</ele>
        <time>2010-03-28T09:58:23Z</time>
      </trkpt>
      <trkpt lat="50.663742" lon="6.406023">
        <ele>432.730000</ele>
        <time>2010-03-28T09:58:39Z</time>
      </trkpt>
      <trkpt lat="50.663711" lon="6.406295">
        <ele>432.250000</ele>
        <time>2010-03-28T09:58:53Z</time>
      </trkpt>
      <trkpt lat="50.663617" lon="6.406572">
        <ele>431.770000</ele>
        <time>2010-03-28T09:59:07Z</time>
      </trkpt>
      <trkpt lat="50.663442" lon="6.406828">
        <ele>431.770000</ele>
        <time>2010-03-28T09:59:25Z</time>
      </trkpt>
      <trkpt lat="50.663363" lon="6.407098">
        <ele>431.290000</ele>
        <time>2010-03-28T09:59:39Z</time>
      </trkpt>
      <trkpt lat="50.663350" lon="6.407153">
        <ele>431.290000</ele>
        <time>2010-03-28T09:59:42Z</time>
      </trkpt>
      <trkpt lat="50.663318" lon="6.407251">
        <ele>430.810000</ele>
        <time>2010-03-28T09:59:47Z</time>
      </trkpt>
      <trkpt lat="50.663366" lon="6.407558">
        <ele>431.290000</ele>
        <time>2010-03-28T10:00:03Z</time>
      </trkpt>
      <trkpt lat="50.663386" lon="6.407613">
        <ele>430.810000</ele>
        <time>2010-03-28T10:00:07Z</time>
      </trkpt>
      <trkpt lat="50.663403" lon="6.407719">
        <ele>430.810000</ele>
        <time>2010-03-28T10:00:12Z</time>
      </trkpt>
      <trkpt lat="50.663491" lon="6.407934">
        <ele>430.330000</ele>
        <time>2010-03-28T10:00:25Z</time>
      </trkpt>
      <trkpt lat="50.663557" lon="6.408046">
        <ele>430.810000</ele>
        <time>2010-03-28T10:00:32Z</time>
      </trkpt>
      <trkpt lat="50.663665" lon="6.408260">
        <ele>430.330000</ele>
        <time>2010-03-28T10:00:49Z</time>
      </trkpt>
      <trkpt lat="50.663807" lon="6.408448">
        <ele>430.810000</ele>
        <time>2010-03-28T10:01:02Z</time>
      </trkpt>
      <trkpt lat="50.663802" lon="6.408452">
        <ele>430.330000</ele>
        <time>2010-03-28T10:01:18Z</time>
      </trkpt>
      <trkpt lat="50.663907" lon="6.408654">
        <ele>430.810000</ele>
        <time>2010-03-28T10:01:39Z</time>
      </trkpt>
      <trkpt lat="50.664083" lon="6.408850">
        <ele>430.810000</ele>
        <time>2010-03-28T10:01:57Z</time>
      </trkpt>
      <trkpt lat="50.664193" lon="6.408751">
        <ele>431.770000</ele>
        <time>2010-03-28T10:02:10Z</time>
      </trkpt>
    </trkseg>
  </trk>

</gpx>
